Time;durP1;ratioP1;P1;durP2;ratioP2;P2;SDS_P1;SDS_P2;PMS_P1;PMS_P2;Temp;Humidity;BMP_temperature;BMP_pressure;BME280_temperature;BME280_humidity;BME280_pressure;Samples;Min_cycle;Max_cycle;Signal;HPM_P1;HPM_P2
2022/05/02 00:00:27;;;;;;;7.93;4.40;;;;;;;16.49;39.11;101360.06;5071344;28;21110;-65
2022/05/02 00:02:54;;;;;;;8.00;4.85;;;;;;;16.46;38.83;101354.28;5064489;28;20443;-65
2022/05/02 00:05:21;;;;;;;8.80;5.07;;;;;;;16.33;39.27;101361.19;5067625;28;20452;-64
2022/05/02 00:07:49;;;;;;;5.18;4.20;;;;;;;16.28;39.21;101357.41;5073405;28;20463;-65
2022/05/02 00:10:16;;;;;;;6.97;3.70;;;;;;;16.31;39.19;101355.19;5071094;28;20458;-65
2022/05/02 00:12:45;;;;;;;5.68;4.00;;;;;;;16.31;38.99;101352.50;5080581;28;20418;-65
2022/05/02 00:15:12;;;;;;;6.20;3.93;;;;;;;16.20;39.38;101350.34;5064858;28;20427;-64
2022/05/02 00:17:57;;;;;;;6.68;3.75;;;;;;;16.19;39.44;101349.53;5071496;28;20407;-65
2022/05/02 00:20:26;;;;;;;5.10;3.53;;;;;;;16.20;39.32;101348.50;5066766;28;20430;-65
2022/05/02 00:22:53;;;;;;;4.95;3.80;;;;;;;16.19;39.19;101343.38;5071066;28;20917;-64
2022/05/02 00:25:20;;;;;;;5.43;3.90;;;;;;;16.21;39.00;101344.00;5062947;28;20469;-65
2022/05/02 00:27:49;;;;;;;6.30;3.70;;;;;;;16.14;39.27;101341.25;5072447;28;20418;-64
2022/05/02 00:30:16;;;;;;;5.05;3.60;;;;;;;16.07;39.17;101344.88;5074255;28;20414;-65
2022/05/02 00:34:56;;;;;;;5.47;3.75;;;;;;;15.91;39.52;101337.94;5084823;28;20410;-63
2022/05/02 00:37:23;;;;;;;4.90;3.45;;;;;;;15.83;39.70;101331.69;5070599;28;20460;-64
2022/05/02 00:39:50;;;;;;;4.85;3.70;;;;;;;15.80;39.40;101333.91;5078478;28;20460;-64
2022/05/02 00:42:18;;;;;;;5.35;3.72;;;;;;;15.82;39.52;101323.84;5073148;28;20411;-64
2022/05/02 00:44:45;;;;;;;5.28;3.40;;;;;;;15.73;39.56;101324.97;5081202;28;20434;-63
2022/05/02 00:47:15;;;;;;;6.13;3.90;;;;;;;15.66;39.71;101327.56;5069449;28;20477;-64
2022/05/02 00:49:42;;;;;;;7.53;4.30;;;;;;;15.62;39.86;101331.63;5085094;28;20422;-64
2022/05/02 00:52:11;;;;;;;6.67;4.70;;;;;;;15.56;40.12;101335.88;5076275;28;20416;-64
2022/05/02 00:54:38;;;;;;;6.22;4.35;;;;;;;15.54;40.12;101329.91;5080522;28;20480;-64
2022/05/02 00:57:07;;;;;;;5.82;4.20;;;;;;;15.47;40.20;101326.31;5068093;28;20499;-65
2022/05/02 00:59:35;;;;;;;5.22;4.10;;;;;;;15.43;40.26;101339.22;5070601;28;20418;-64
2022/05/02 01:02:02;;;;;;;6.03;4.28;;;;;;;15.35;40.21;101346.50;5077857;28;20480;-63
2022/05/02 01:04:29;;;;;;;6.00;4.80;;;;;;;15.31;40.33;101340.72;5069794;28;20428;-64
2022/05/02 01:08:31;;;;;;;6.60;3.95;;;;;;;15.27;40.67;101326.91;5073693;28;20461;-64
2022/05/02 01:10:58;;;;;;;6.60;4.60;;;;;;;15.20;40.48;101333.19;5063289;28;20449;-64
2022/05/02 01:13:37;;;;;;;4.82;3.80;;;;;;;15.18;40.60;101333.34;5068418;28;20438;-65
2022/05/02 01:16:12;;;;;;;6.90;4.25;;;;;;;15.19;41.10;101332.31;5062190;28;20457;-65
2022/05/02 01:18:40;;;;;;;5.93;4.10;;;;;;;15.17;41.35;101338.88;5061626;28;20452;-65
2022/05/02 01:21:14;;;;;;;6.88;4.40;;;;;;;15.09;41.46;101342.47;5066609;28;20486;-64
2022/05/02 01:23:41;;;;;;;6.57;4.55;;;;;;;15.08;41.54;101330.13;5062004;28;20838;-64
2022/05/02 01:26:09;;;;;;;7.15;4.60;;;;;;;15.11;42.05;101327.09;5066897;28;20452;-64
2022/05/02 01:28:42;;;;;;;5.88;4.40;;;;;;;15.09;41.73;101335.28;5066476;28;20900;-65
2022/05/02 01:31:09;;;;;;;5.60;4.20;;;;;;;15.09;41.82;101334.47;5067342;28;20420;-66
2022/05/02 01:33:36;;;;;;;6.85;4.47;;;;;;;15.09;41.79;101331.81;5067194;28;20921;-65
2022/05/02 01:36:04;;;;;;;6.23;4.30;;;;;;;15.03;42.16;101335.19;5065886;28;20585;-64
2022/05/02 01:38:32;;;;;;;5.97;3.97;;;;;;;14.96;42.22;101336.94;5065813;28;20974;-64
2022/05/02 01:41:00;;;;;;;6.27;3.90;;;;;;;15.00;42.51;101325.72;5060778;28;20415;-65
2022/05/02 01:43:27;;;;;;;7.50;4.47;;;;;;;15.00;42.49;101332.88;5065812;28;20422;-64
2022/05/02 01:45:54;;;;;;;5.47;4.25;;;;;;;15.00;42.20;101316.84;5063297;28;20428;-65
2022/05/02 01:48:21;;;;;;;6.50;4.43;;;;;;;14.97;42.38;101323.41;5064512;28;20992;-64
2022/05/02 01:50:48;;;;;;;6.13;4.35;;;;;;;14.95;42.42;101311.28;5064273;28;20854;-65
2022/05/02 01:53:15;;;;;;;7.75;4.40;;;;;;;14.93;42.85;101318.59;5067343;28;20455;-65
2022/05/02 01:55:43;;;;;;;6.07;4.50;;;;;;;14.90;42.78;101317.16;5063911;28;20437;-65
2022/05/02 01:58:11;;;;;;;8.02;4.25;;;;;;;14.82;42.71;101307.41;5062881;28;21073;-65
2022/05/02 02:00:38;;;;;;;4.93;3.95;;;;;;;14.75;42.84;101314.47;5066001;28;20477;-64
2022/05/02 02:05:48;;;;;;;5.43;4.15;;;;;;;14.62;43.34;101309.78;5067991;28;20821;-64
2022/05/02 02:06:51;;;;;;;7.15;4.40;;;;;;;14.61;43.37;101317.97;5064977;28;20431;-64
2022/05/02 02:09:18;;;;;;;4.82;4.00;;;;;;;14.60;43.38;101322.44;5065668;28;20412;-65
2022/05/02 02:11:45;;;;;;;6.03;4.00;;;;;;;14.67;43.35;101318.03;5064650;28;20428;-64
2022/05/02 02:14:12;;;;;;;4.23;3.80;;;;;;;14.67;43.49;101312.69;5065786;28;20427;-64
2022/05/02 02:16:39;;;;;;;6.07;3.90;;;;;;;14.64;43.76;101317.56;5064522;28;20982;-64
2022/05/02 02:19:08;;;;;;;5.22;3.92;;;;;;;14.67;43.52;101319.88;5065856;28;20477;-65
2022/05/02 02:21:35;;;;;;;6.25;4.13;;;;;;;14.62;43.53;101316.94;5063108;28;20419;-65
2022/05/02 02:24:03;;;;;;;6.00;3.90;;;;;;;14.60;43.55;101313.63;5065171;28;20549;-64
2022/05/02 02:26:30;;;;;;;5.72;4.20;;;;;;;14.56;43.65;101313.13;5063330;28;20432;-65
2022/05/02 02:28:58;;;;;;;7.72;4.43;;;;;;;14.55;44.16;101311.47;5062004;28;20459;-64
2022/05/02 02:31:25;;;;;;;6.20;4.10;;;;;;;14.51;44.14;101312.84;5065006;28;20432;-64
2022/05/02 02:33:52;;;;;;;5.15;4.15;;;;;;;14.51;43.70;101310.16;5063943;28;20432;-65
2022/05/02 02:36:20;;;;;;;5.90;4.18;;;;;;;14.40;44.16;101311.44;5063296;28;20424;-65
2022/05/02 02:38:47;;;;;;;5.67;4.50;;;;;;;14.37;44.22;101311.81;5064430;28;20427;-63
2022/05/02 02:41:14;;;;;;;6.22;4.97;;;;;;;14.39;44.15;101311.63;5068498;28;20420;-64
2022/05/02 02:43:41;;;;;;;5.93;4.70;;;;;;;14.38;44.30;101308.13;5067870;28;20432;-64
2022/05/02 02:46:08;;;;;;;7.68;5.05;;;;;;;14.39;44.51;101314.31;5059189;28;20433;-64
2022/05/02 02:48:35;;;;;;;5.55;4.55;;;;;;;14.34;44.81;101312.97;5047450;28;20428;-64
2022/05/02 02:51:03;;;;;;;6.63;4.60;;;;;;;14.36;44.92;101310.13;5048466;28;20428;-64
2022/05/02 02:53:31;;;;;;;7.45;4.82;;;;;;;14.34;44.93;101310.31;5049487;28;20419;-64
2022/05/02 02:58:08;;;;;;;5.97;4.70;;;;;;;14.31;44.81;101313.38;5077756;27;2171670;-64
2022/05/02 03:00:35;;;;;;;6.18;4.90;;;;;;;14.36;44.95;101310.13;5138861;27;20534;-63
2022/05/02 03:03:02;;;;;;;6.80;5.00;;;;;;;14.36;45.19;101310.13;5135447;27;20448;-63
2022/05/02 03:08:13;;;;;;;8.47;4.73;;;;;;;14.32;45.24;101312.34;5143465;27;20881;-64
2022/05/02 03:10:40;;;;;;;6.45;5.03;;;;;;;14.30;45.05;101310.88;5132020;27;20419;-64
2022/05/02 03:13:09;;;;;;;8.05;5.05;;;;;;;14.30;45.27;101313.53;5131664;27;20479;-64
2022/05/02 03:15:36;;;;;;;6.75;4.95;;;;;;;14.31;45.46;101305.38;5135430;27;20423;-64
2022/05/02 03:18:04;;;;;;;6.25;5.18;;;;;;;14.29;45.55;101314.53;5133464;27;20483;-64
2022/05/02 03:20:31;;;;;;;6.70;4.97;;;;;;;14.32;45.38;101316.84;5130800;27;20508;-64
2022/05/02 03:22:58;;;;;;;8.17;5.10;;;;;;;14.33;45.31;101316.69;5132274;27;20442;-64
2022/05/02 03:25:25;;;;;;;10.23;4.80;;;;;;;14.33;45.49;101316.69;5136504;27;20470;-64
2022/05/02 03:27:52;;;;;;;8.85;5.10;;;;;;;14.34;45.61;101325.50;5134475;27;20408;-64
2022/05/02 03:30:21;;;;;;;7.03;5.20;;;;;;;14.35;45.13;101321.84;5130884;27;20403;-65
2022/05/02 03:32:49;;;;;;;7.57;5.17;;;;;;;14.31;44.85;101323.19;5129806;27;20821;-63
2022/05/02 03:35:16;;;;;;;10.73;6.53;;;;;;;14.27;44.03;101324.56;5136134;27;20471;-63
2022/05/02 03:37:43;;;;;;;11.73;7.15;;;;;;;14.27;43.24;101325.38;5131431;27;20458;-64
2022/05/02 03:40:10;;;;;;;10.85;7.93;;;;;;;14.23;43.35;101323.25;5133666;27;20438;-64
2022/05/02 03:42:38;;;;;;;13.00;7.90;;;;;;;14.21;42.96;101328.78;5132085;27;20471;-63
2022/05/02 03:45:06;;;;;;;10.73;7.70;;;;;;;14.18;43.13;101325.63;5130019;27;20411;-63
2022/05/02 03:47:35;;;;;;;11.75;7.88;;;;;;;14.21;42.94;101327.94;5135679;27;20421;-63
2022/05/02 03:50:02;;;;;;;10.57;7.35;;;;;;;14.24;42.79;101325.75;5133903;27;20406;-63
2022/05/02 03:52:29;;;;;;;10.68;6.80;;;;;;;14.19;42.90;101329.94;5137278;27;20449;-64
2022/05/02 03:54:56;;;;;;;11.05;6.80;;;;;;;14.27;42.87;101327.22;5135295;27;20492;-64
2022/05/02 03:57:23;;;;;;;9.43;6.38;;;;;;;14.02;43.67;101329.25;5132682;27;20497;-63
2022/05/02 03:59:50;;;;;;;9.55;6.47;;;;;;;14.28;43.24;101328.91;5135175;27;20410;-64
2022/05/02 04:02:17;;;;;;;14.18;6.88;;;;;;;14.46;42.88;101331.25;5143175;27;20453;-63
2022/05/02 04:04:46;;;;;;;10.83;6.60;;;;;;;14.61;42.89;101333.97;5141956;27;20410;-64
2022/05/02 04:07:13;;;;;;;10.73;6.45;;;;;;;14.76;42.70;101333.97;5140037;27;20421;-64
2022/05/02 04:09:40;;;;;;;11.05;6.88;;;;;;;14.88;42.25;101335.19;5119197;27;20411;-64
2022/05/02 04:12:08;;;;;;;10.52;7.63;;;;;;;14.98;42.04;101333.09;5122402;27;20414;-63
2022/05/02 04:14:35;;;;;;;10.77;7.88;;;;;;;15.19;41.59;101328.84;5118252;27;21020;-64
2022/05/02 04:17:02;;;;;;;11.27;8.43;;;;;;;15.46;41.40;101330.81;5119033;27;20790;-64
2022/05/02 04:19:29;;;;;;;11.55;8.32;;;;;;;15.63;41.15;101326.09;5117729;27;20508;-62
2022/05/02 04:21:57;;;;;;;9.88;6.75;;;;;;;15.96;41.12;101331.00;5117795;27;20531;-63
2022/05/02 04:24:24;;;;;;;7.05;5.35;;;;;;;16.23;41.28;101329.41;5122024;27;20409;-65
2022/05/02 04:26:51;;;;;;;7.60;5.65;;;;;;;16.55;41.15;101329.88;5121285;27;20498;-63
2022/05/02 04:29:18;;;;;;;6.07;4.60;;;;;;;16.64;41.52;101327.88;5116279;27;20465;-64
2022/05/02 04:31:45;;;;;;;7.60;4.60;;;;;;;16.65;41.58;101329.53;5121713;27;20776;-65
2022/05/02 04:34:12;;;;;;;5.22;4.63;;;;;;;17.04;40.97;101335.38;5116765;27;20425;-64
2022/05/02 04:36:39;;;;;;;8.18;4.38;;;;;;;17.42;40.28;101325.03;5118974;27;20426;-63
2022/05/02 04:39:08;;;;;;;7.03;4.10;;;;;;;17.28;40.30;101328.69;5115444;27;20421;-64
2022/05/02 04:41:35;;;;;;;12.75;4.53;;;;;;;17.44;40.23;101332.88;5115579;27;20889;-64
2022/05/02 04:44:02;;;;;;;6.60;4.00;;;;;;;17.62;40.13;101327.78;5122059;27;20418;-64
2022/05/02 04:46:29;;;;;;;4.95;3.95;;;;;;;18.15;38.84;101330.63;5116897;27;20425;-63
2022/05/02 04:48:56;;;;;;;4.85;4.00;;;;;;;18.28;38.54;101332.47;5123909;27;20431;-64
2022/05/02 04:51:23;;;;;;;6.10;4.30;;;;;;;18.24;38.26;101331.25;5115756;27;20967;-63
2022/05/02 04:56:36;;;;;;;5.25;4.10;;;;;;;18.61;37.94;101333.50;5117004;27;20763;-63
2022/05/02 04:59:03;;;;;;;4.93;4.13;;;;;;;19.18;37.11;101336.53;5116761;27;20415;-63
2022/05/02 05:01:30;;;;;;;4.60;4.07;;;;;;;19.69;36.23;101332.97;5124501;27;20929;-63
2022/05/02 05:03:57;;;;;;;6.30;4.28;;;;;;;19.91;35.64;101333.50;5116944;27;20430;-63
2022/05/02 05:06:24;;;;;;;5.53;3.70;;;;;;;19.93;35.69;101328.72;5113844;27;20426;-64
2022/05/02 05:08:51;;;;;;;4.38;3.95;;;;;;;20.23;35.12;101341.56;5120959;27;20446;-64
2022/05/02 05:11:37;;;;;;;7.22;4.40;;;;;;;20.59;34.57;101348.09;5120858;27;20439;-64
2022/05/02 05:17:20;;;;;;;6.18;4.00;;;;;;;21.30;33.07;101338.69;5114774;27;20942;-64
2022/05/02 05:20:05;;;;;;;5.63;3.92;;;;;;;21.76;32.34;101337.25;5112613;27;20416;-63
2022/05/02 05:22:54;;;;;;;5.85;4.18;;;;;;;22.12;31.94;101338.19;5115372;27;20414;-63
2022/05/02 05:25:43;;;;;;;7.28;4.28;;;;;;;22.33;31.56;101330.63;5114655;27;20411;-63
2022/05/02 05:28:40;;;;;;;5.07;4.00;;;;;;;22.62;31.12;101325.34;5116122;27;20972;-63
2022/05/02 05:34:05;;;;;;;7.47;3.92;;;;;;;22.29;31.72;101332.13;5075468;27;20513;-65
2022/05/02 05:36:42;;;;;;;5.47;4.15;;;;;;;22.48;31.34;101330.97;5064425;28;20541;-63
2022/05/02 05:39:16;;;;;;;7.35;4.07;;;;;;;22.80;31.06;101327.91;5064501;28;20489;-63
2022/05/02 05:41:55;;;;;;;6.47;4.07;;;;;;;22.63;31.41;101325.09;5062745;28;20428;-63
2022/05/02 05:44:37;;;;;;;5.40;4.00;;;;;;;22.51;31.24;101327.00;5065481;28;20470;-64
2022/05/02 05:47:25;;;;;;;3.72;3.40;;;;;;;23.29;30.33;101323.03;5061802;28;20477;-63
2022/05/02 05:50:04;;;;;;;5.03;3.92;;;;;;;23.13;30.51;101331.06;5062947;28;20933;-63
2022/05/02 05:52:46;;;;;;;4.97;3.85;;;;;;;23.56;30.17;101327.88;5064918;28;20506;-63
2022/05/02 05:55:18;;;;;;;6.13;4.30;;;;;;;24.02;29.57;101326.03;5063674;28;20424;-63
2022/05/02 05:57:50;;;;;;;6.00;3.90;;;;;;;24.23;29.10;101321.75;5062970;28;20515;-63
2022/05/02 06:00:18;;;;;;;4.60;4.20;;;;;;;23.54;29.96;101330.00;5062134;28;20498;-63
2022/05/02 06:02:56;;;;;;;6.45;4.03;;;;;;;23.78;29.69;101332.59;5062669;28;20511;-63
2022/05/02 06:05:25;;;;;;;4.40;3.80;;;;;;;24.21;29.09;101329.31;5063585;28;20416;-64
2022/05/02 06:07:53;;;;;;;5.15;3.90;;;;;;;24.36;29.52;101325.19;5063915;28;20841;-63
2022/05/02 06:10:20;;;;;;;4.88;3.88;;;;;;;24.60;28.90;101334.00;5063215;28;20466;-63
2022/05/02 06:12:51;;;;;;;4.88;4.00;;;;;;;24.46;29.12;101328.06;5064759;28;20424;-63
2022/05/02 06:20:53;;;;;;;4.63;4.00;;;;;;;24.59;29.14;101321.50;5061663;28;20418;-63
2022/05/02 06:23:20;;;;;;;4.10;3.70;;;;;;;24.80;29.02;101322.63;5063391;28;20416;-62
2022/05/02 06:25:50;;;;;;;4.80;3.90;;;;;;;24.92;28.76;101315.19;5063040;28;20519;-64
2022/05/02 06:28:20;;;;;;;5.68;3.78;;;;;;;24.27;29.54;101316.66;5062597;28;20454;-63
2022/05/02 06:30:52;;;;;;;5.57;3.47;;;;;;;24.92;29.26;101314.34;5061382;28;20518;-63
2022/05/02 06:33:21;;;;;;;4.63;3.50;;;;;;;25.23;28.54;101307.44;5079166;28;20519;-63
2022/05/02 06:36:07;;;;;;;7.30;3.50;;;;;;;25.44;28.15;101318.53;5084654;28;20776;-64
2022/05/02 06:38:46;;;;;;;4.60;3.60;;;;;;;25.08;28.34;101304.53;5084368;28;20475;-63
2022/05/02 06:41:27;;;;;;;4.05;3.60;;;;;;;24.82;28.88;101315.06;5083834;28;20417;-63
2022/05/02 06:44:02;;;;;;;4.80;3.65;;;;;;;24.90;28.65;101308.38;5077453;28;20905;-64
2022/05/02 06:46:34;;;;;;;5.22;3.60;;;;;;;24.88;29.03;101310.50;5069306;28;20509;-64
2022/05/02 06:49:04;;;;;;;5.60;3.60;;;;;;;24.61;29.21;101311.22;5070897;28;20496;-63
2022/05/02 06:51:39;;;;;;;5.80;3.25;;;;;;;25.00;28.50;101311.22;5069805;28;20419;-63
2022/05/02 06:55:11;;;;;;;5.30;3.30;;;;;;;24.16;29.70;101302.13;5074493;27;20473;-62
2022/05/02 06:57:51;;;;;;;5.50;2.97;;;;;;;24.06;29.84;101315.53;5060870;28;20451;-63
2022/05/02 07:00:20;;;;;;;4.07;3.00;;;;;;;23.47;31.02;101296.84;5060805;28;20453;-63
2022/05/02 07:03:20;;;;;;;4.85;3.10;;;;;;;23.50;30.75;101304.50;5061454;28;20427;-63
2022/05/02 07:06:01;;;;;;;3.58;3.00;;;;;;;23.17;31.47;101311.41;5061438;28;20465;-63
2022/05/02 07:08:29;;;;;;;4.13;2.80;;;;;;;22.83;31.77;101297.72;5060059;28;20477;-62
2022/05/02 07:11:03;;;;;;;5.68;2.97;;;;;;;23.23;31.21;101294.25;5060366;28;20811;-63
2022/05/02 07:13:50;;;;;;;3.80;2.93;;;;;;;22.57;32.59;101296.31;5063158;28;20523;-62
2022/05/02 07:16:22;;;;;;;5.00;2.90;;;;;;;22.20;33.25;101295.69;5060088;28;20427;-63
2022/05/02 07:19:21;;;;;;;4.38;3.00;;;;;;;22.07;33.45;101300.25;5066627;28;20507;-63
2022/05/02 07:21:56;;;;;;;5.53;3.00;;;;;;;21.28;34.47;101294.09;5065386;28;20840;-63
2022/05/02 07:24:46;;;;;;;6.38;3.25;;;;;;;21.08;34.72;101297.84;5067387;28;20501;-62
2022/05/02 07:27:27;;;;;;;6.40;3.10;;;;;;;20.26;35.56;101306.13;5061081;28;20478;-63
2022/05/02 07:29:59;;;;;;;4.03;2.90;;;;;;;20.07;36.35;101293.66;5065625;28;20471;-63
2022/05/02 07:32:27;;;;;;;4.70;3.10;;;;;;;20.03;36.08;101299.47;5065941;28;20502;-63
2022/05/02 07:34:57;;;;;;;4.40;2.80;;;;;;;19.47;37.09;101297.50;5058614;28;20433;-62
2022/05/02 07:37:24;;;;;;;3.83;2.75;;;;;;;19.81;37.30;101279.34;5047154;28;20422;-63
2022/05/02 07:39:53;;;;;;;5.20;3.00;;;;;;;20.08;36.48;101285.34;5061703;28;20588;-62
2022/05/02 07:42:22;;;;;;;4.00;2.80;;;;;;;19.63;37.17;101309.66;5057184;28;20418;-62
2022/05/02 07:44:52;;;;;;;3.83;2.60;;;;;;;19.42;37.06;101291.94;5061600;28;20483;-61
2022/05/02 07:47:20;;;;;;;4.17;2.50;;;;;;;19.42;36.90;101306.22;5063758;28;20933;-61
2022/05/02 07:49:49;;;;;;;3.38;2.63;;;;;;;19.33;36.94;101288.69;5065122;28;20427;-62
2022/05/02 07:52:21;;;;;;;2.97;2.67;;;;;;;19.56;36.44;101276.59;5062768;28;20510;-62
2022/05/02 07:54:50;;;;;;;4.20;2.53;;;;;;;19.33;36.45;101280.63;5061251;28;20470;-63
2022/05/02 07:57:19;;;;;;;4.13;2.60;;;;;;;19.38;36.64;101288.88;5056177;28;20485;-62
2022/05/02 07:59:52;;;;;;;4.93;2.60;;;;;;;19.39;36.46;101266.34;5060617;28;20428;-64
2022/05/02 08:02:20;;;;;;;3.20;2.30;;;;;;;19.52;36.29;101278.88;5053058;28;20412;-63
2022/05/02 08:04:48;;;;;;;4.43;2.63;;;;;;;19.53;36.45;101287.75;5055656;28;20432;-62
2022/05/02 08:07:16;;;;;;;3.80;2.25;;;;;;;19.21;36.42;101276.94;5048666;28;20449;-63
2022/05/02 08:10:04;;;;;;;3.97;2.50;;;;;;;19.59;36.25;101260.00;5049749;28;20417;-63
2022/05/02 08:12:39;;;;;;;3.88;2.30;;;;;;;20.11;35.46;101267.94;5049345;28;20921;-63
2022/05/02 08:15:12;;;;;;;4.45;2.50;;;;;;;19.95;35.49;101259.38;5053495;28;20479;-63
2022/05/02 08:17:59;;;;;;;5.35;2.90;;;;;;;19.73;35.29;101285.78;5053245;28;20444;-63
2022/05/02 08:20:37;;;;;;;4.40;2.25;;;;;;;19.73;35.35;101266.97;5049152;28;20424;-64
2022/05/02 08:29:22;;;;;;;5.38;2.30;;;;;;;19.91;33.47;101268.09;5048852;28;20430;-63
2022/05/02 08:31:57;;;;;;;3.90;1.98;;;;;;;19.56;32.39;101258.56;5050345;28;20451;-63
2022/05/02 08:34:37;;;;;;;5.63;2.10;;;;;;;19.78;32.78;101258.25;5049083;28;20440;-63
2022/05/02 08:37:20;;;;;;;3.80;1.83;;;;;;;19.92;32.66;101261.69;5047438;28;20433;-63
2022/05/02 08:39:57;;;;;;;4.00;1.70;;;;;;;20.02;31.77;101262.84;5049602;28;20416;-63
2022/05/02 08:43:02;;;;;;;4.88;1.80;;;;;;;19.96;31.74;101258.31;5049115;28;20424;-63
2022/05/02 08:46:00;;;;;;;3.08;1.98;;;;;;;19.86;31.29;101248.06;4975792;28;20446;-63
2022/05/02 08:49:32;;;;;;;4.23;2.00;;;;;;;19.75;31.51;101258.69;5048774;28;20420;-63
2022/05/02 08:52:12;;;;;;;5.65;2.00;;;;;;;19.85;30.84;101259.84;5048543;28;20541;-64
2022/05/02 08:55:09;;;;;;;3.85;1.85;;;;;;;20.20;31.24;101250.47;5047580;28;20459;-63
2022/05/02 08:58:10;;;;;;;3.90;2.00;;;;;;;20.27;31.17;101251.22;5011211;28;20432;-64
2022/05/02 09:00:54;;;;;;;3.40;1.70;;;;;;;20.16;30.78;101252.78;5045726;28;20416;-63
2022/05/02 09:03:50;;;;;;;5.57;2.30;;;;;;;20.49;30.20;101265.13;5046260;28;20421;-63
2022/05/02 09:06:51;;;;;;;3.65;1.65;;;;;;;20.21;29.70;101255.63;5041903;28;20420;-63
2022/05/02 09:09:34;;;;;;;4.13;2.00;;;;;;;20.17;29.08;101240.97;5044443;28;20412;-63
2022/05/02 09:12:37;;;;;;;3.85;1.70;;;;;;;20.16;28.70;101231.22;5042733;28;20454;-64
2022/05/02 09:15:18;;;;;;;4.70;1.60;;;;;;;20.43;28.58;101237.19;5014650;28;20432;-64
2022/05/02 09:18:12;;;;;;;6.53;1.93;;;;;;;20.50;28.85;101226.34;5043609;28;20900;-63
2022/05/02 09:21:00;;;;;;;3.85;1.70;;;;;;;20.60;29.24;101231.25;5045311;28;20488;-65
2022/05/02 09:24:17;;;;;;;4.88;1.80;;;;;;;20.54;29.79;101222.16;5043418;28;20426;-64
2022/05/02 09:27:16;;;;;;;4.90;1.80;;;;;;;20.27;29.47;101237.75;5035982;28;20856;-63
2022/05/02 09:30:14;;;;;;;3.47;1.92;;;;;;;20.51;29.15;101216.41;5021889;28;20420;-63
2022/05/02 09:32:53;;;;;;;3.97;1.80;;;;;;;20.50;29.30;101234.44;5032587;28;20904;-63
2022/05/02 09:35:30;;;;;;;4.20;1.57;;;;;;;20.48;28.79;101206.09;5046692;28;20464;-64
2022/05/02 09:37:59;;;;;;;5.53;1.50;;;;;;;20.42;28.10;101202.44;5045272;28;20938;-64
2022/05/02 09:40:36;;;;;;;3.70;1.52;;;;;;;20.61;28.07;101206.78;5049045;28;20482;-64
2022/05/02 09:49:33;;;;;;;4.17;1.60;;;;;;;20.75;27.40;101199.38;5049510;28;20412;-64
2022/05/02 09:49:38;;;;;;;3.95;1.60;;;;;;;20.82;26.79;101172.34;5049540;28;20408;-64
2022/05/02 09:52:13;;;;;;;3.75;1.40;;;;;;;20.72;26.36;101180.13;5048300;28;20412;-65
2022/05/02 09:57:59;;;;;;;4.72;1.60;;;;;;;20.78;27.26;101160.41;5048066;28;20412;-64
2022/05/02 10:03:27;;;;;;;3.80;1.40;;;;;;;20.82;26.16;101156.19;5048704;28;20774;-64
2022/05/02 10:06:04;;;;;;;5.90;1.63;;;;;;;20.90;25.88;101157.75;5049096;28;20935;-64
2022/05/02 10:08:39;;;;;;;3.88;1.30;;;;;;;20.85;24.67;101160.28;5050532;28;20504;-64
2022/05/02 10:11:13;;;;;;;4.22;1.40;;;;;;;20.82;24.17;101134.63;5049955;28;20794;-64
2022/05/02 10:13:51;;;;;;;3.70;1.55;;;;;;;20.99;24.87;101141.03;5049721;28;20505;-63
2022/05/02 10:16:38;;;;;;;2.92;1.30;;;;;;;20.93;25.64;101138.44;5050093;28;20470;-64
2022/05/02 10:19:31;;;;;;;5.75;1.60;;;;;;;21.22;24.67;101127.84;5049728;28;20830;-63
2022/05/02 10:22:23;;;;;;;4.00;1.40;;;;;;;21.24;25.42;101134.66;5047049;28;20417;-64
2022/05/02 10:25:02;;;;;;;4.93;1.60;;;;;;;21.31;25.57;101121.88;5049673;28;20953;-64
2022/05/02 10:27:41;;;;;;;2.78;1.20;;;;;;;21.14;24.71;101120.91;5049383;28;20470;-64
2022/05/02 10:30:11;;;;;;;4.07;1.30;;;;;;;20.90;24.47;101120.00;5049529;28;20496;-64
2022/05/02 10:32:44;;;;;;;4.07;1.40;;;;;;;20.94;24.77;101118.50;5049836;28;20417;-64
2022/05/02 10:35:13;;;;;;;2.25;1.50;;;;;;;21.08;25.56;101128.03;5049839;28;20432;-64
2022/05/02 10:37:42;;;;;;;3.22;1.30;;;;;;;20.90;24.85;101131.59;5049862;28;20870;-65
2022/05/02 10:40:12;;;;;;;3.23;1.30;;;;;;;21.09;25.26;101112.69;5049431;28;20420;-64
2022/05/02 10:42:47;;;;;;;4.22;1.50;;;;;;;21.29;25.36;101107.00;5049784;28;20412;-64
2022/05/02 10:45:15;;;;;;;3.65;1.50;;;;;;;21.22;24.93;101115.19;5049344;28;20799;-65
2022/05/02 10:47:51;;;;;;;3.00;1.20;;;;;;;21.00;24.38;101120.28;5049358;28;20470;-64
2022/05/02 10:50:20;;;;;;;3.00;1.30;;;;;;;20.90;24.63;101095.75;5049711;28;20424;-64
2022/05/02 10:53:15;;;;;;;3.78;1.40;;;;;;;21.16;24.71;101100.75;5049440;28;20440;-65
2022/05/02 10:55:58;;;;;;;2.58;1.40;;;;;;;21.28;24.24;101091.88;5049139;28;20435;-64
2022/05/02 10:58:25;;;;;;;4.07;1.40;;;;;;;21.38;25.36;101101.03;5049205;28;20478;-65
2022/05/02 11:01:07;;;;;;;4.18;1.27;;;;;;;21.18;25.49;101109.44;5049166;28;20420;-65
2022/05/02 11:03:46;;;;;;;3.83;1.40;;;;;;;20.83;24.84;101101.22;5049413;28;20419;-64
2022/05/02 11:06:32;;;;;;;2.03;1.25;;;;;;;20.77;24.61;101096.78;5049421;28;20419;-64
2022/05/02 11:09:03;;;;;;;2.10;1.13;;;;;;;20.88;24.49;101097.88;5049429;28;20958;-65
2022/05/02 11:11:41;;;;;;;2.30;1.17;;;;;;;20.97;25.05;101124.25;5049433;28;20490;-64
2022/05/02 11:14:23;;;;;;;1.42;1.10;;;;;;;20.75;24.45;101101.56;5049190;28;20432;-65
2022/05/02 11:16:59;;;;;;;3.15;1.27;;;;;;;20.90;23.86;101098.44;5031499;28;20420;-64
2022/05/02 11:22:27;;;;;;;4.10;1.30;;;;;;;21.24;23.64;101094.19;5049226;28;20411;-64
2022/05/02 11:25:02;;;;;;;2.95;1.20;;;;;;;21.28;23.93;101086.47;5049038;28;20415;-65
2022/05/02 11:27:44;;;;;;;2.10;1.20;;;;;;;21.31;23.79;101094.09;5049267;28;20415;-65
2022/05/02 11:30:15;;;;;;;2.70;1.23;;;;;;;21.24;23.32;101085.31;5049301;28;20513;-65
2022/05/02 11:32:54;;;;;;;2.67;1.40;;;;;;;21.31;23.34;101086.81;5049465;28;20428;-64
2022/05/02 11:35:25;;;;;;;3.15;1.20;;;;;;;21.48;23.11;101095.09;5049018;28;20428;-64
2022/05/02 11:38:00;;;;;;;2.53;1.23;;;;;;;21.31;22.97;101086.00;5049062;28;20427;-64
2022/05/02 11:40:33;;;;;;;2.03;1.30;;;;;;;21.36;22.98;101094.22;5050754;28;20478;-64
2022/05/02 11:43:01;;;;;;;2.33;1.30;;;;;;;21.58;22.77;101091.81;5052652;28;20423;-64
2022/05/02 11:45:41;;;;;;;4.60;1.20;;;;;;;21.49;22.93;101112.91;5052960;28;20413;-65
2022/05/02 11:48:35;;;;;;;2.92;1.30;;;;;;;21.52;22.68;101096.28;5052542;28;20448;-64
2022/05/02 11:51:05;;;;;;;3.08;1.20;;;;;;;21.65;23.73;101087.13;5052760;28;20417;-65
2022/05/02 11:53:36;;;;;;;3.65;1.20;;;;;;;21.50;23.09;101089.44;5052334;28;20778;-64
2022/05/02 11:56:05;;;;;;;3.00;1.10;;;;;;;21.64;22.59;101092.75;5052350;28;20439;-64
2022/05/02 11:58:38;;;;;;;2.63;1.10;;;;;;;21.51;22.82;101081.13;5052397;28;20409;-64
2022/05/02 12:01:07;;;;;;;4.43;1.40;;;;;;;21.66;22.60;101063.66;5052307;28;20417;-64
2022/05/02 12:03:54;;;;;;;2.58;1.10;;;;;;;21.66;23.05;101069.06;5052277;28;20518;-64
2022/05/02 12:06:37;;;;;;;2.92;1.20;;;;;;;21.62;23.30;101063.31;5052195;28;20861;-65
2022/05/02 12:09:06;;;;;;;2.10;1.08;;;;;;;21.61;21.98;101055.44;5052114;28;20428;-64
2022/05/02 12:11:52;;;;;;;1.95;1.35;;;;;;;21.73;21.79;101057.09;5052150;28;20416;-65
2022/05/02 12:14:20;;;;;;;2.30;1.00;;;;;;;21.82;22.45;101044.03;5051994;28;20447;-65
2022/05/02 12:17:03;;;;;;;1.90;1.00;;;;;;;21.93;23.03;101048.63;5051979;28;20845;-65
2022/05/02 12:19:31;;;;;;;2.50;1.00;;;;;;;21.76;21.28;101070.09;5052270;28;20413;-64
2022/05/02 12:22:02;;;;;;;2.53;1.13;;;;;;;21.74;21.02;101057.91;5051875;28;20499;-63
2022/05/02 12:24:33;;;;;;;1.85;1.10;;;;;;;21.68;21.70;101045.34;5051831;28;20495;-64
2022/05/02 12:27:00;;;;;;;3.40;1.17;;;;;;;21.78;22.42;101021.31;5051762;28;20801;-64
2022/05/02 12:29:28;;;;;;;2.90;1.30;;;;;;;21.95;21.82;101045.69;5051745;28;20413;-64
2022/05/02 12:31:58;;;;;;;5.32;1.10;;;;;;;21.73;22.01;101050.88;5052081;28;20494;-64
2022/05/02 12:34:37;;;;;;;2.05;1.00;;;;;;;21.67;21.72;101027.53;5052042;28;20843;-65
2022/05/02 12:37:10;;;;;;;2.22;1.17;;;;;;;21.89;21.94;101012.34;5051540;28;20470;-64